首页
METAR-TAF:

METAR-TAF

机场 :

Panama Pacifico, 巴拿马

纬度: 08-55N, 经度: 079-36W, 海拔: 16米

当前天气观测

该预报发布于42分钟前的02:00 UTC
静风
温度 26°C
湿度 100%
气压 1011 hPa
能见度10公里或以上
少量云层高于800英尺
少量云层高于1700英尺
散云层高于9000英尺

METAR: MPPA 250200Z 00000KT(E) 9999 FEW008 FEW017 SCT090 26/26 Q1011

时间: 21:42 (02:42 UTC)

预报

该预报发布于3小时和42分钟前的23:00 UTC
预报有效从25日的 00点(UTC)到 26日的 06点(UTC)
风速7节,风向
能见度10公里或以上
散云层高于1800英尺
几率 30%
从 25日的 03点(UTC)到 25日的 07点(UTC)
能見度: 5000
少量云层高于500英尺
散云层高于1600英尺, 积雨云.
多云层高于8000英尺
短暂存在
从 25日的 12点(UTC)到 25日的 16点(UTC)
风速7节,风向
短暂存在
从 25日的 18点(UTC)到 25日的 22点(UTC)
能見度: 5000
散云层高于1500英尺, 积雨云.
多云层高于8000英尺
雷暴, 雨
短暂存在
从 25日的 23点(UTC)到 26日的 01点(UTC)

TAF: MPPA 242300Z 2500/2606 19007KT 9999 SCT018 PROB30 2503/2507 5000 TSSHRA FEW005 SCT016CB BKN080 TEMPO 2512/2516 01007KT TEMPO 2518/2522 5000 TSRA SCT015CB BKN080 TEMPO 2523/2601 NSW

超过4000个机场的气象观测和天气预报(METAR&TAF报告)。

可查询的气象台以黄色和红色小点在地图上表示。

将鼠标移到小点上方,可查看气象台名称。

然后点击查看天气观测和预报。

如需切换地图:点击带黑十字的绿色按钮放大地图;点击带横线的绿色按钮缩小地图;或者点击绿色箭头查看邻近地区的地图。


METAR-TAF: